Fife Ness, United Kingdom
Current Conditions -  °F | °C
As of 2:50 PM on Saturday 25 Oct 2014 (Local Time) from EGQL Reporting Station
Broken Clouds Broken Clouds  
Wind Chill: 55°   Ceiling: 3300
Heat Index: 55°   Visibility: 6mi
Dew Point: 45°   Wind: 24mph
Humidity: 67%   Direction: 250°WSW
Pressure: 29.62"   Gusts: NA
Location:  56.3°N, 2.58°W
Report Text: EGQL 251350Z 25021KT 9999 SCT029 BKN033 13/07 Q1003 BLU
Loading
Personal Weather Stations






























Interactive Weather Map
Tropical Storm Tracking
New forecast layout! Learn more

10-Day Weather Forecast

Advertisements
Track Severe Weather on mobile